sensor_id;sensor_type;location;lat;lon;timestamp;P1;durP1;ratioP1;P2;durP2;ratioP2
48859;SDS011;34679;51.436;-2.518;2023-03-08T00:00:02;6.53;;;5.10;;
48859;SDS011;34679;51.436;-2.518;2023-03-08T00:02:34;5.78;;;5.22;;
48859;SDS011;34679;51.436;-2.518;2023-03-08T00:05:01;6.57;;;4.35;;
48859;SDS011;34679;51.436;-2.518;2023-03-08T00:07:27;9.57;;;5.90;;
48859;SDS011;34679;51.436;-2.518;2023-03-08T00:09:53;10.35;;;5.25;;
48859;SDS011;34679;51.436;-2.518;2023-03-08T00:12:18;8.02;;;5.72;;
48859;SDS011;34679;51.436;-2.518;2023-03-08T00:14:44;6.38;;;5.53;;
48859;SDS011;34679;51.436;-2.518;2023-03-08T00:17:10;7.32;;;5.32;;
48859;SDS011;34679;51.436;-2.518;2023-03-08T00:32:19;8.07;;;5.55;;
48859;SDS011;34679;51.436;-2.518;2023-03-08T00:34:45;7.05;;;6.20;;
48859;SDS011;34679;51.436;-2.518;2023-03-08T00:37:11;6.88;;;5.30;;
48859;SDS011;34679;51.436;-2.518;2023-03-08T00:39:38;7.85;;;5.25;;
48859;SDS011;34679;51.436;-2.518;2023-03-08T00:42:03;9.35;;;5.43;;
48859;SDS011;34679;51.436;-2.518;2023-03-08T00:44:29;6.00;;;5.38;;
48859;SDS011;34679;51.436;-2.518;2023-03-08T00:46:55;6.28;;;4.90;;
48859;SDS011;34679;51.436;-2.518;2023-03-08T00:49:20;6.78;;;5.07;;
48859;SDS011;34679;51.436;-2.518;2023-03-08T00:51:47;8.05;;;5.28;;
48859;SDS011;34679;51.436;-2.518;2023-03-08T00:54:13;8.32;;;5.80;;
48859;SDS011;34679;51.436;-2.518;2023-03-08T00:56:39;7.68;;;6.45;;
48859;SDS011;34679;51.436;-2.518;2023-03-08T00:59:05;5.95;;;5.35;;
48859;SDS011;34679;51.436;-2.518;2023-03-08T01:01:30;7.53;;;5.93;;
48859;SDS011;34679;51.436;-2.518;2023-03-08T01:03:56;8.23;;;6.18;;
48859;SDS011;34679;51.436;-2.518;2023-03-08T01:06:23;9.23;;;6.05;;
48859;SDS011;34679;51.436;-2.518;2023-03-08T01:08:49;7.55;;;5.43;;
48859;SDS011;34679;51.436;-2.518;2023-03-08T01:13:43;10.30;;;7.43;;
48859;SDS011;34679;51.436;-2.518;2023-03-08T01:16:41;12.63;;;6.45;;
48859;SDS011;34679;51.436;-2.518;2023-03-08T01:19:01;9.63;;;7.40;;
48859;SDS011;34679;51.436;-2.518;2023-03-08T01:21:27;9.82;;;5.82;;
48859;SDS011;34679;51.436;-2.518;2023-03-08T01:23:54;9.07;;;6.90;;
48859;SDS011;34679;51.436;-2.518;2023-03-08T01:26:21;10.10;;;6.72;;
48859;SDS011;34679;51.436;-2.518;2023-03-08T01:28:48;11.02;;;7.63;;
48859;SDS011;34679;51.436;-2.518;2023-03-08T01:31:15;11.60;;;7.20;;
48859;SDS011;34679;51.436;-2.518;2023-03-08T01:33:49;11.85;;;7.45;;
48859;SDS011;34679;51.436;-2.518;2023-03-08T01:36:17;11.90;;;7.32;;
48859;SDS011;34679;51.436;-2.518;2023-03-08T01:38:44;12.95;;;7.53;;
48859;SDS011;34679;51.436;-2.518;2023-03-08T01:41:15;12.35;;;8.35;;
48859;SDS011;34679;51.436;-2.518;2023-03-08T01:43:46;9.98;;;6.68;;
48859;SDS011;34679;51.436;-2.518;2023-03-08T01:51:30;9.63;;;6.50;;
48859;SDS011;34679;51.436;-2.518;2023-03-08T01:53:58;9.90;;;7.28;;
48859;SDS011;34679;51.436;-2.518;2023-03-08T01:56:29;6.60;;;5.70;;
48859;SDS011;34679;51.436;-2.518;2023-03-08T01:58:55;8.02;;;6.60;;
48859;SDS011;34679;51.436;-2.518;2023-03-08T02:01:21;17.67;;;8.32;;
48859;SDS011;34679;51.436;-2.518;2023-03-08T02:03:48;10.27;;;7.20;;
48859;SDS011;34679;51.436;-2.518;2023-03-08T02:06:14;7.35;;;6.00;;
48859;SDS011;34679;51.436;-2.518;2023-03-08T02:08:42;9.85;;;8.25;;
48859;SDS011;34679;51.436;-2.518;2023-03-08T02:11:08;14.15;;;8.15;;
48859;SDS011;34679;51.436;-2.518;2023-03-08T02:13:35;12.85;;;8.95;;
48859;SDS011;34679;51.436;-2.518;2023-03-08T02:16:01;9.88;;;7.40;;
48859;SDS011;34679;51.436;-2.518;2023-03-08T02:18:29;12.15;;;8.07;;
48859;SDS011;34679;51.436;-2.518;2023-03-08T02:20:54;15.93;;;7.70;;
48859;SDS011;34679;51.436;-2.518;2023-03-08T02:23:21;18.23;;;10.60;;
48859;SDS011;34679;51.436;-2.518;2023-03-08T02:25:55;13.30;;;9.27;;
48859;SDS011;34679;51.436;-2.518;2023-03-08T02:28:25;19.98;;;11.65;;
48859;SDS011;34679;51.436;-2.518;2023-03-08T02:30:52;19.58;;;12.02;;
48859;SDS011;34679;51.436;-2.518;2023-03-08T02:33:18;16.20;;;10.88;;
48859;SDS011;34679;51.436;-2.518;2023-03-08T02:35:44;14.48;;;10.98;;
48859;SDS011;34679;51.436;-2.518;2023-03-08T02:38:11;20.52;;;11.13;;
48859;SDS011;34679;51.436;-2.518;2023-03-08T02:40:38;18.35;;;11.88;;
48859;SDS011;34679;51.436;-2.518;2023-03-08T02:43:04;14.02;;;7.57;;
48859;SDS011;34679;51.436;-2.518;2023-03-08T02:45:31;18.95;;;11.00;;
48859;SDS011;34679;51.436;-2.518;2023-03-08T02:47:58;20.02;;;12.85;;
48859;SDS011;34679;51.436;-2.518;2023-03-08T02:50:24;19.88;;;11.88;;
48859;SDS011;34679;51.436;-2.518;2023-03-08T02:52:50;20.25;;;12.75;;
48859;SDS011;34679;51.436;-2.518;2023-03-08T02:55:16;25.30;;;13.27;;
48859;SDS011;34679;51.436;-2.518;2023-03-08T02:57:42;24.98;;;12.05;;
48859;SDS011;34679;51.436;-2.518;2023-03-08T03:00:08;26.95;;;14.35;;
48859;SDS011;34679;51.436;-2.518;2023-03-08T03:02:34;25.85;;;13.48;;
48859;SDS011;34679;51.436;-2.518;2023-03-08T03:05:02;21.10;;;12.32;;
48859;SDS011;34679;51.436;-2.518;2023-03-08T03:07:28;19.65;;;10.80;;
48859;SDS011;34679;51.436;-2.518;2023-03-08T03:09:54;19.50;;;12.65;;
48859;SDS011;34679;51.436;-2.518;2023-03-08T03:12:19;16.95;;;11.38;;
48859;SDS011;34679;51.436;-2.518;2023-03-08T03:14:45;20.08;;;12.02;;
48859;SDS011;34679;51.436;-2.518;2023-03-08T03:17:11;19.73;;;12.73;;
48859;SDS011;34679;51.436;-2.518;2023-03-08T03:19:36;19.27;;;11.95;;
48859;SDS011;34679;51.436;-2.518;2023-03-08T03:22:02;16.67;;;10.93;;
48859;SDS011;34679;51.436;-2.518;2023-03-08T03:24:28;18.00;;;10.68;;
48859;SDS011;34679;51.436;-2.518;2023-03-08T03:26:54;20.35;;;11.00;;
48859;SDS011;34679;51.436;-2.518;2023-03-08T03:29:20;18.42;;;11.52;;
48859;SDS011;34679;51.436;-2.518;2023-03-08T03:31:46;23.10;;;11.20;;
48859;SDS011;34679;51.436;-2.518;2023-03-08T03:34:12;22.23;;;11.40;;
48859;SDS011;34679;51.436;-2.518;2023-03-08T03:36:38;26.60;;;11.93;;
48859;SDS011;34679;51.436;-2.518;2023-03-08T03:39:04;25.70;;;11.82;;
48859;SDS011;34679;51.436;-2.518;2023-03-08T03:41:30;15.82;;;9.43;;
48859;SDS011;34679;51.436;-2.518;2023-03-08T03:43:56;21.40;;;13.07;;
48859;SDS011;34679;51.436;-2.518;2023-03-08T03:46:24;20.08;;;11.45;;
48859;SDS011;34679;51.436;-2.518;2023-03-08T03:48:50;22.48;;;12.15;;
48859;SDS011;34679;51.436;-2.518;2023-03-08T03:51:16;27.73;;;12.88;;
48859;SDS011;34679;51.436;-2.518;2023-03-08T03:53:44;25.25;;;14.27;;
48859;SDS011;34679;51.436;-2.518;2023-03-08T03:58:40;25.67;;;14.35;;
48859;SDS011;34679;51.436;-2.518;2023-03-08T04:01:11;26.60;;;14.88;;
48859;SDS011;34679;51.436;-2.518;2023-03-08T04:03:40;23.80;;;12.95;;
48859;SDS011;34679;51.436;-2.518;2023-03-08T04:06:06;29.63;;;15.68;;
48859;SDS011;34679;51.436;-2.518;2023-03-08T04:08:42;18.73;;;10.82;;
48859;SDS011;34679;51.436;-2.518;2023-03-08T04:11:10;29.92;;;16.92;;
48859;SDS011;34679;51.436;-2.518;2023-03-08T04:13:38;30.25;;;16.90;;
48859;SDS011;34679;51.436;-2.518;2023-03-08T04:16:14;30.60;;;17.15;;
48859;SDS011;34679;51.436;-2.518;2023-03-08T04:18:41;36.13;;;18.85;;
48859;SDS011;34679;51.436;-2.518;2023-03-08T04:21:08;30.60;;;15.75;;
48859;SDS011;34679;51.436;-2.518;2023-03-08T04:23:34;35.50;;;19.40;;
48859;SDS011;34679;51.436;-2.518;2023-03-08T04:26:00;37.78;;;18.52;;
48859;SDS011;34679;51.436;-2.518;2023-03-08T04:28:27;36.72;;;17.77;;
48859;SDS011;34679;51.436;-2.518;2023-03-08T04:30:53;34.33;;;17.60;;
48859;SDS011;34679;51.436;-2.518;2023-03-08T04:33:19;26.77;;;13.98;;
48859;SDS011;34679;51.436;-2.518;2023-03-08T04:35:45;32.15;;;16.48;;
48859;SDS011;34679;51.436;-2.518;2023-03-08T04:38:11;37.53;;;16.60;;
48859;SDS011;34679;51.436;-2.518;2023-03-08T04:40:37;36.33;;;18.10;;
48859;SDS011;34679;51.436;-2.518;2023-03-08T04:43:23;36.40;;;20.95;;
48859;SDS011;34679;51.436;-2.518;2023-03-08T04:45:49;37.35;;;19.38;;
48859;SDS011;34679;51.436;-2.518;2023-03-08T04:48:15;36.08;;;18.52;;
48859;SDS011;34679;51.436;-2.518;2023-03-08T04:50:41;43.05;;;18.95;;
48859;SDS011;34679;51.436;-2.518;2023-03-08T04:53:07;33.88;;;18.30;;
48859;SDS011;34679;51.436;-2.518;2023-03-08T04:55:33;39.60;;;18.60;;
48859;SDS011;34679;51.436;-2.518;2023-03-08T04:58:01;34.00;;;18.17;;
48859;SDS011;34679;51.436;-2.518;2023-03-08T05:00:27;25.13;;;14.38;;
48859;SDS011;34679;51.436;-2.518;2023-03-08T05:02:53;29.80;;;16.80;;
48859;SDS011;34679;51.436;-2.518;2023-03-08T05:05:18;25.38;;;13.73;;
48859;SDS011;34679;51.436;-2.518;2023-03-08T05:07:44;23.58;;;14.27;;
48859;SDS011;34679;51.436;-2.518;2023-03-08T05:10:10;31.08;;;17.30;;
48859;SDS011;34679;51.436;-2.518;2023-03-08T05:12:36;29.52;;;15.07;;
48859;SDS011;34679;51.436;-2.518;2023-03-08T05:15:01;32.75;;;16.92;;
48859;SDS011;34679;51.436;-2.518;2023-03-08T05:17:27;29.42;;;17.85;;
48859;SDS011;34679;51.436;-2.518;2023-03-08T05:19:53;31.35;;;15.80;;
48859;SDS011;34679;51.436;-2.518;2023-03-08T05:22:18;29.88;;;16.80;;
48859;SDS011;34679;51.436;-2.518;2023-03-08T05:24:44;33.65;;;17.77;;
48859;SDS011;34679;51.436;-2.518;2023-03-08T05:27:10;33.90;;;17.83;;
48859;SDS011;34679;51.436;-2.518;2023-03-08T05:29:36;33.40;;;17.83;;
48859;SDS011;34679;51.436;-2.518;2023-03-08T05:32:02;28.77;;;15.75;;
48859;SDS011;34679;51.436;-2.518;2023-03-08T05:34:28;24.77;;;13.30;;
48859;SDS011;34679;51.436;-2.518;2023-03-08T05:36:54;32.97;;;19.15;;
48859;SDS011;34679;51.436;-2.518;2023-03-08T05:39:20;36.15;;;19.05;;
48859;SDS011;34679;51.436;-2.518;2023-03-08T05:41:46;32.30;;;16.15;;
48859;SDS011;34679;51.436;-2.518;2023-03-08T05:44:12;37.35;;;18.83;;
48859;SDS011;34679;51.436;-2.518;2023-03-08T05:46:38;30.15;;;16.17;;
48859;SDS011;34679;51.436;-2.518;2023-03-08T05:49:04;28.13;;;16.00;;
48859;SDS011;34679;51.436;-2.518;2023-03-08T05:51:30;34.78;;;17.23;;
48859;SDS011;34679;51.436;-2.518;2023-03-08T05:53:56;34.83;;;16.55;;
48859;SDS011;34679;51.436;-2.518;2023-03-08T05:56:22;41.83;;;20.70;;
48859;SDS011;34679;51.436;-2.518;2023-03-08T05:58:48;30.90;;;17.25;;
48859;SDS011;34679;51.436;-2.518;2023-03-08T06:01:15;38.45;;;18.10;;
48859;SDS011;34679;51.436;-2.518;2023-03-08T06:03:46;34.90;;;17.92;;
48859;SDS011;34679;51.436;-2.518;2023-03-08T06:06:14;34.67;;;17.85;;
48859;SDS011;34679;51.436;-2.518;2023-03-08T06:08:40;28.98;;;16.60;;
48859;SDS011;34679;51.436;-2.518;2023-03-08T06:11:05;31.55;;;19.05;;
48859;SDS011;34679;51.436;-2.518;2023-03-08T06:13:31;30.75;;;18.02;;
48859;SDS011;34679;51.436;-2.518;2023-03-08T06:15:58;33.42;;;17.98;;
48859;SDS011;34679;51.436;-2.518;2023-03-08T06:18:24;32.92;;;17.92;;
48859;SDS011;34679;51.436;-2.518;2023-03-08T06:21:01;34.75;;;17.83;;
48859;SDS011;34679;51.436;-2.518;2023-03-08T06:23:28;28.58;;;15.63;;
48859;SDS011;34679;51.436;-2.518;2023-03-08T06:25:55;29.60;;;15.60;;
48859;SDS011;34679;51.436;-2.518;2023-03-08T06:28:22;32.92;;;15.18;;
48859;SDS011;34679;51.436;-2.518;2023-03-08T06:30:49;27.25;;;15.65;;
48859;SDS011;34679;51.436;-2.518;2023-03-08T06:33:18;39.83;;;19.13;;
48859;SDS011;34679;51.436;-2.518;2023-03-08T06:35:59;35.25;;;18.77;;
48859;SDS011;34679;51.436;-2.518;2023-03-08T06:38:25;37.22;;;20.00;;
48859;SDS011;34679;51.436;-2.518;2023-03-08T06:40:52;27.33;;;14.98;;
48859;SDS011;34679;51.436;-2.518;2023-03-08T06:43:18;40.75;;;19.67;;
48859;SDS011;34679;51.436;-2.518;2023-03-08T06:45:44;36.40;;;19.63;;
48859;SDS011;34679;51.436;-2.518;2023-03-08T06:48:10;32.55;;;19.02;;
48859;SDS011;34679;51.436;-2.518;2023-03-08T06:50:36;35.03;;;18.77;;
48859;SDS011;34679;51.436;-2.518;2023-03-08T06:53:01;35.35;;;17.60;;
48859;SDS011;34679;51.436;-2.518;2023-03-08T06:55:27;33.35;;;19.40;;
48859;SDS011;34679;51.436;-2.518;2023-03-08T06:57:53;39.03;;;21.48;;
48859;SDS011;34679;51.436;-2.518;2023-03-08T07:00:21;34.97;;;19.05;;
48859;SDS011;34679;51.436;-2.518;2023-03-08T07:02:47;33.53;;;17.77;;
48859;SDS011;34679;51.436;-2.518;2023-03-08T07:05:14;38.60;;;19.52;;
48859;SDS011;34679;51.436;-2.518;2023-03-08T07:07:41;21.75;;;13.43;;
48859;SDS011;34679;51.436;-2.518;2023-03-08T07:10:07;27.98;;;14.93;;
48859;SDS011;34679;51.436;-2.518;2023-03-08T07:12:41;35.85;;;19.55;;
48859;SDS011;34679;51.436;-2.518;2023-03-08T07:15:12;31.20;;;17.48;;
48859;SDS011;34679;51.436;-2.518;2023-03-08T07:17:43;32.65;;;18.48;;
48859;SDS011;34679;51.436;-2.518;2023-03-08T07:20:14;40.28;;;20.85;;
48859;SDS011;34679;51.436;-2.518;2023-03-08T07:22:41;38.97;;;19.70;;
48859;SDS011;34679;51.436;-2.518;2023-03-08T07:25:11;34.40;;;18.73;;
48859;SDS011;34679;51.436;-2.518;2023-03-08T07:27:38;35.53;;;18.17;;
48859;SDS011;34679;51.436;-2.518;2023-03-08T07:30:04;31.23;;;15.80;;
48859;SDS011;34679;51.436;-2.518;2023-03-08T07:32:33;35.10;;;19.13;;
48859;SDS011;34679;51.436;-2.518;2023-03-08T07:34:59;31.92;;;17.80;;
48859;SDS011;34679;51.436;-2.518;2023-03-08T07:37:25;40.55;;;16.73;;
48859;SDS011;34679;51.436;-2.518;2023-03-08T07:39:51;32.17;;;16.85;;
48859;SDS011;34679;51.436;-2.518;2023-03-08T07:42:16;32.92;;;17.73;;
48859;SDS011;34679;51.436;-2.518;2023-03-08T07:44:42;29.73;;;16.33;;
48859;SDS011;34679;51.436;-2.518;2023-03-08T07:47:08;27.75;;;17.48;;
48859;SDS011;34679;51.436;-2.518;2023-03-08T07:49:35;28.80;;;17.40;;
48859;SDS011;34679;51.436;-2.518;2023-03-08T07:52:01;22.73;;;12.88;;
48859;SDS011;34679;51.436;-2.518;2023-03-08T07:54:26;25.15;;;15.10;;
48859;SDS011;34679;51.436;-2.518;2023-03-08T07:56:52;24.80;;;14.77;;
48859;SDS011;34679;51.436;-2.518;2023-03-08T07:59:18;26.35;;;15.70;;
48859;SDS011;34679;51.436;-2.518;2023-03-08T08:01:44;24.00;;;14.55;;
48859;SDS011;34679;51.436;-2.518;2023-03-08T08:04:10;25.92;;;14.52;;
48859;SDS011;34679;51.436;-2.518;2023-03-08T08:06:37;28.20;;;16.10;;
48859;SDS011;34679;51.436;-2.518;2023-03-08T08:09:03;20.75;;;12.23;;
48859;SDS011;34679;51.436;-2.518;2023-03-08T08:11:29;26.75;;;14.88;;
48859;SDS011;34679;51.436;-2.518;2023-03-08T08:13:55;23.80;;;14.32;;
48859;SDS011;34679;51.436;-2.518;2023-03-08T08:16:21;28.25;;;16.25;;
48859;SDS011;34679;51.436;-2.518;2023-03-08T08:18:46;15.90;;;9.77;;
48859;SDS011;34679;51.436;-2.518;2023-03-08T08:21:13;24.85;;;13.95;;
48859;SDS011;34679;51.436;-2.518;2023-03-08T08:23:40;19.20;;;11.10;;
48859;SDS011;34679;51.436;-2.518;2023-03-08T08:26:10;19.17;;;12.38;;
48859;SDS011;34679;51.436;-2.518;2023-03-08T08:28:39;25.10;;;14.52;;
48859;SDS011;34679;51.436;-2.518;2023-03-08T08:31:10;23.80;;;14.10;;
48859;SDS011;34679;51.436;-2.518;2023-03-08T08:33:37;23.67;;;14.30;;
48859;SDS011;34679;51.436;-2.518;2023-03-08T08:36:03;21.13;;;11.30;;
48859;SDS011;34679;51.436;-2.518;2023-03-08T08:38:31;21.30;;;13.20;;
48859;SDS011;34679;51.436;-2.518;2023-03-08T08:40:58;20.50;;;11.85;;
48859;SDS011;34679;51.436;-2.518;2023-03-08T08:43:25;15.13;;;9.27;;
48859;SDS011;34679;51.436;-2.518;2023-03-08T08:45:55;21.85;;;13.07;;
48859;SDS011;34679;51.436;-2.518;2023-03-08T08:48:22;20.13;;;12.73;;
48859;SDS011;34679;51.436;-2.518;2023-03-08T08:50:48;20.30;;;14.32;;
48859;SDS011;34679;51.436;-2.518;2023-03-08T08:53:13;22.23;;;13.73;;
48859;SDS011;34679;51.436;-2.518;2023-03-08T08:55:39;19.38;;;13.57;;
48859;SDS011;34679;51.436;-2.518;2023-03-08T08:58:05;20.17;;;11.18;;
48859;SDS011;34679;51.436;-2.518;2023-03-08T09:00:31;19.05;;;11.82;;
48859;SDS011;34679;51.436;-2.518;2023-03-08T09:02:59;21.55;;;13.77;;
48859;SDS011;34679;51.436;-2.518;2023-03-08T09:05:25;19.83;;;13.40;;
48859;SDS011;34679;51.436;-2.518;2023-03-08T09:07:58;18.83;;;10.85;;
48859;SDS011;34679;51.436;-2.518;2023-03-08T09:10:29;17.13;;;10.50;;
48859;SDS011;34679;51.436;-2.518;2023-03-08T09:12:56;18.75;;;13.85;;
48859;SDS011;34679;51.436;-2.518;2023-03-08T09:15:25;18.02;;;12.32;;
48859;SDS011;34679;51.436;-2.518;2023-03-08T09:17:51;15.20;;;10.77;;
48859;SDS011;34679;51.436;-2.518;2023-03-08T09:20:17;17.90;;;11.05;;
48859;SDS011;34679;51.436;-2.518;2023-03-08T09:22:43;18.20;;;12.35;;
48859;SDS011;34679;51.436;-2.518;2023-03-08T09:25:09;14.13;;;9.95;;
48859;SDS011;34679;51.436;-2.518;2023-03-08T09:27:37;14.48;;;10.10;;
48859;SDS011;34679;51.436;-2.518;2023-03-08T09:30:04;11.30;;;9.77;;
48859;SDS011;34679;51.436;-2.518;2023-03-08T09:32:33;11.68;;;8.50;;
48859;SDS011;34679;51.436;-2.518;2023-03-08T09:35:00;13.13;;;9.73;;
48859;SDS011;34679;51.436;-2.518;2023-03-08T09:37:26;15.60;;;10.52;;
48859;SDS011;34679;51.436;-2.518;2023-03-08T09:39:52;10.90;;;7.57;;
48859;SDS011;34679;51.436;-2.518;2023-03-08T09:42:31;12.50;;;8.80;;
48859;SDS011;34679;51.436;-2.518;2023-03-08T09:45:12;12.15;;;7.40;;
48859;SDS011;34679;51.436;-2.518;2023-03-08T09:47:59;10.07;;;8.50;;
48859;SDS011;34679;51.436;-2.518;2023-03-08T09:50:38;8.13;;;7.28;;
48859;SDS011;34679;51.436;-2.518;2023-03-08T09:55:57;5.10;;;4.35;;
48859;SDS011;34679;51.436;-2.518;2023-03-08T09:58:57;7.88;;;6.22;;
48859;SDS011;34679;51.436;-2.518;2023-03-08T10:04:09;8.90;;;5.80;;
48859;SDS011;34679;51.436;-2.518;2023-03-08T10:07:02;7.05;;;6.00;;
48859;SDS011;34679;51.436;-2.518;2023-03-08T10:09:43;7.55;;;5.63;;
48859;SDS011;34679;51.436;-2.518;2023-03-08T10:15:07;7.32;;;6.43;;
48859;SDS011;34679;51.436;-2.518;2023-03-08T10:17:41;7.47;;;5.80;;
48859;SDS011;34679;51.436;-2.518;2023-03-08T10:20:20;7.47;;;6.65;;
48859;SDS011;34679;51.436;-2.518;2023-03-08T10:22:57;6.70;;;5.40;;
48859;SDS011;34679;51.436;-2.518;2023-03-08T10:25:43;6.93;;;6.22;;
48859;SDS011;34679;51.436;-2.518;2023-03-08T10:28:14;7.53;;;6.28;;
48859;SDS011;34679;51.436;-2.518;2023-03-08T10:33:12;6.53;;;5.85;;
48859;SDS011;34679;51.436;-2.518;2023-03-08T10:35:56;6.15;;;4.75;;
48859;SDS011;34679;51.436;-2.518;2023-03-08T10:38:31;7.35;;;6.13;;
48859;SDS011;34679;51.436;-2.518;2023-03-08T10:41:14;7.55;;;6.05;;
48859;SDS011;34679;51.436;-2.518;2023-03-08T10:43:46;6.85;;;6.18;;
48859;SDS011;34679;51.436;-2.518;2023-03-08T10:46:15;7.05;;;5.70;;
48859;SDS011;34679;51.436;-2.518;2023-03-08T10:48:43;6.88;;;5.25;;
48859;SDS011;34679;51.436;-2.518;2023-03-08T10:51:20;8.70;;;6.75;;
48859;SDS011;34679;51.436;-2.518;2023-03-08T10:53:55;7.07;;;5.68;;
48859;SDS011;34679;51.436;-2.518;2023-03-08T10:56:50;7.30;;;6.38;;
48859;SDS011;34679;51.436;-2.518;2023-03-08T10:59:19;7.07;;;5.90;;
48859;SDS011;34679;51.436;-2.518;2023-03-08T11:02:16;6.40;;;5.78;;
48859;SDS011;34679;51.436;-2.518;2023-03-08T11:04:53;4.55;;;4.15;;
48859;SDS011;34679;51.436;-2.518;2023-03-08T11:10:06;6.22;;;5.63;;
48859;SDS011;34679;51.436;-2.518;2023-03-08T11:12:42;6.32;;;5.55;;
48859;SDS011;34679;51.436;-2.518;2023-03-08T11:15:12;5.18;;;3.95;;
48859;SDS011;34679;51.436;-2.518;2023-03-08T11:17:39;7.85;;;6.15;;
48859;SDS011;34679;51.436;-2.518;2023-03-08T11:20:26;7.75;;;6.43;;
48859;SDS011;34679;51.436;-2.518;2023-03-08T11:25:48;10.30;;;6.72;;
48859;SDS011;34679;51.436;-2.518;2023-03-08T11:31:25;8.55;;;6.03;;
48859;SDS011;34679;51.436;-2.518;2023-03-08T11:34:20;8.55;;;6.90;;
48859;SDS011;34679;51.436;-2.518;2023-03-08T11:36:58;12.82;;;6.93;;
48859;SDS011;34679;51.436;-2.518;2023-03-08T11:39:38;9.73;;;7.30;;
48859;SDS011;34679;51.436;-2.518;2023-03-08T11:42:29;7.20;;;6.47;;
48859;SDS011;34679;51.436;-2.518;2023-03-08T11:48:19;7.65;;;6.88;;
48859;SDS011;34679;51.436;-2.518;2023-03-08T11:54:21;6.25;;;5.30;;
48859;SDS011;34679;51.436;-2.518;2023-03-08T11:59:09;9.30;;;6.43;;
48859;SDS011;34679;51.436;-2.518;2023-03-08T12:01:52;6.53;;;5.93;;
48859;SDS011;34679;51.436;-2.518;2023-03-08T12:04:29;7.53;;;6.20;;
48859;SDS011;34679;51.436;-2.518;2023-03-08T12:07:24;8.68;;;6.95;;
48859;SDS011;34679;51.436;-2.518;2023-03-08T12:13:27;7.32;;;6.32;;
48859;SDS011;34679;51.436;-2.518;2023-03-08T12:18:56;7.43;;;6.55;;
48859;SDS011;34679;51.436;-2.518;2023-03-08T12:24:46;6.90;;;6.18;;
48859;SDS011;34679;51.436;-2.518;2023-03-08T12:27:18;7.03;;;6.43;;
48859;SDS011;34679;51.436;-2.518;2023-03-08T12:30:05;5.75;;;4.50;;
48859;SDS011;34679;51.436;-2.518;2023-03-08T12:32:41;6.25;;;5.65;;
48859;SDS011;34679;51.436;-2.518;2023-03-08T12:40:29;5.20;;;4.80;;
48859;SDS011;34679;51.436;-2.518;2023-03-08T12:43:05;5.35;;;4.78;;
48859;SDS011;34679;51.436;-2.518;2023-03-08T12:45:36;5.25;;;4.85;;
48859;SDS011;34679;51.436;-2.518;2023-03-08T12:50:36;4.60;;;4.20;;
48859;SDS011;34679;51.436;-2.518;2023-03-08T12:56:01;5.35;;;4.57;;
48859;SDS011;34679;51.436;-2.518;2023-03-08T12:58:34;4.72;;;4.43;;
48859;SDS011;34679;51.436;-2.518;2023-03-08T13:04:24;4.40;;;4.00;;
48859;SDS011;34679;51.436;-2.518;2023-03-08T13:09:35;4.97;;;4.57;;
48859;SDS011;34679;51.436;-2.518;2023-03-08T13:20:42;4.13;;;3.67;;
48859;SDS011;34679;51.436;-2.518;2023-03-08T13:23:01;4.50;;;4.10;;
48859;SDS011;34679;51.436;-2.518;2023-03-08T13:28:22;6.97;;;4.07;;
48859;SDS011;34679;51.436;-2.518;2023-03-08T13:41:34;4.97;;;4.50;;
48859;SDS011;34679;51.436;-2.518;2023-03-08T13:44:04;3.78;;;3.47;;
48859;SDS011;34679;51.436;-2.518;2023-03-08T13:46:47;3.47;;;2.95;;
48859;SDS011;34679;51.436;-2.518;2023-03-08T13:49:21;2.63;;;2.42;;
48859;SDS011;34679;51.436;-2.518;2023-03-08T13:51:48;4.88;;;4.20;;
48859;SDS011;34679;51.436;-2.518;2023-03-08T13:57:17;5.43;;;4.93;;
48859;SDS011;34679;51.436;-2.518;2023-03-08T13:59:50;8.80;;;4.68;;
48859;SDS011;34679;51.436;-2.518;2023-03-08T14:02:18;6.03;;;5.47;;
48859;SDS011;34679;51.436;-2.518;2023-03-08T14:04:46;8.38;;;4.90;;
48859;SDS011;34679;51.436;-2.518;2023-03-08T14:09:54;6.93;;;5.40;;
48859;SDS011;34679;51.436;-2.518;2023-03-08T14:12:21;5.20;;;4.70;;
48859;SDS011;34679;51.436;-2.518;2023-03-08T14:14:53;5.35;;;4.85;;
48859;SDS011;34679;51.436;-2.518;2023-03-08T14:17:22;5.63;;;4.90;;
48859;SDS011;34679;51.436;-2.518;2023-03-08T14:19:59;6.45;;;5.30;;
48859;SDS011;34679;51.436;-2.518;2023-03-08T14:22:39;7.32;;;6.25;;
48859;SDS011;34679;51.436;-2.518;2023-03-08T14:25:20;6.80;;;5.53;;
48859;SDS011;34679;51.436;-2.518;2023-03-08T14:27:51;6.70;;;6.10;;
48859;SDS011;34679;51.436;-2.518;2023-03-08T14:30:18;6.70;;;5.93;;
48859;SDS011;34679;51.436;-2.518;2023-03-08T14:33:05;6.57;;;5.95;;
48859;SDS011;34679;51.436;-2.518;2023-03-08T14:35:50;6.15;;;5.55;;
48859;SDS011;34679;51.436;-2.518;2023-03-08T14:38:23;5.63;;;5.00;;
48859;SDS011;34679;51.436;-2.518;2023-03-08T14:40:49;4.97;;;4.43;;
48859;SDS011;34679;51.436;-2.518;2023-03-08T14:43:17;5.50;;;5.00;;
48859;SDS011;34679;51.436;-2.518;2023-03-08T14:45:54;5.28;;;4.32;;
48859;SDS011;34679;51.436;-2.518;2023-03-08T14:48:29;4.95;;;4.50;;
48859;SDS011;34679;51.436;-2.518;2023-03-08T14:51:03;5.53;;;5.05;;
48859;SDS011;34679;51.436;-2.518;2023-03-08T14:53:42;5.78;;;5.22;;
48859;SDS011;34679;51.436;-2.518;2023-03-08T14:56:18;4.88;;;4.38;;
48859;SDS011;34679;51.436;-2.518;2023-03-08T14:58:45;18.83;;;4.78;;
48859;SDS011;34679;51.436;-2.518;2023-03-08T15:01:35;3.88;;;3.45;;
48859;SDS011;34679;51.436;-2.518;2023-03-08T15:04:00;5.07;;;4.30;;
48859;SDS011;34679;51.436;-2.518;2023-03-08T15:06:30;10.80;;;5.18;;
48859;SDS011;34679;51.436;-2.518;2023-03-08T15:08:58;3.92;;;3.10;;
48859;SDS011;34679;51.436;-2.518;2023-03-08T15:11:25;2.45;;;2.25;;
48859;SDS011;34679;51.436;-2.518;2023-03-08T15:13:55;4.68;;;4.25;;
48859;SDS011;34679;51.436;-2.518;2023-03-08T15:16:22;4.78;;;3.90;;
48859;SDS011;34679;51.436;-2.518;2023-03-08T15:18:48;5.80;;;4.47;;
48859;SDS011;34679;51.436;-2.518;2023-03-08T15:21:15;5.10;;;4.60;;
48859;SDS011;34679;51.436;-2.518;2023-03-08T15:23:48;4.05;;;3.75;;
48859;SDS011;34679;51.436;-2.518;2023-03-08T15:26:25;5.00;;;4.43;;
48859;SDS011;34679;51.436;-2.518;2023-03-08T15:28:52;5.03;;;4.57;;
48859;SDS011;34679;51.436;-2.518;2023-03-08T15:31:18;5.55;;;5.05;;
48859;SDS011;34679;51.436;-2.518;2023-03-08T15:33:44;20.23;;;5.20;;
48859;SDS011;34679;51.436;-2.518;2023-03-08T15:36:13;4.50;;;4.10;;
48859;SDS011;34679;51.436;-2.518;2023-03-08T15:38:41;5.40;;;4.90;;
48859;SDS011;34679;51.436;-2.518;2023-03-08T15:41:11;5.80;;;5.30;;
48859;SDS011;34679;51.436;-2.518;2023-03-08T15:43:37;5.53;;;4.30;;
48859;SDS011;34679;51.436;-2.518;2023-03-08T15:46:03;5.97;;;5.47;;
48859;SDS011;34679;51.436;-2.518;2023-03-08T15:48:29;9.35;;;5.63;;
48859;SDS011;34679;51.436;-2.518;2023-03-08T15:50:55;7.43;;;6.72;;
48859;SDS011;34679;51.436;-2.518;2023-03-08T15:53:21;7.82;;;6.97;;
48859;SDS011;34679;51.436;-2.518;2023-03-08T15:55:47;6.05;;;5.45;;
48859;SDS011;34679;51.436;-2.518;2023-03-08T15:58:13;12.55;;;7.30;;
48859;SDS011;34679;51.436;-2.518;2023-03-08T16:00:39;6.07;;;5.47;;
48859;SDS011;34679;51.436;-2.518;2023-03-08T16:03:04;6.65;;;6.05;;
48859;SDS011;34679;51.436;-2.518;2023-03-08T16:05:30;6.95;;;6.35;;
48859;SDS011;34679;51.436;-2.518;2023-03-08T16:08:00;6.15;;;5.55;;
48859;SDS011;34679;51.436;-2.518;2023-03-08T16:10:28;5.20;;;4.70;;
48859;SDS011;34679;51.436;-2.518;2023-03-08T16:12:57;7.20;;;5.25;;
48859;SDS011;34679;51.436;-2.518;2023-03-08T16:15:23;6.20;;;5.70;;
48859;SDS011;34679;51.436;-2.518;2023-03-08T16:17:48;5.95;;;5.38;;